createdAt,value
2023-04-18T00:25:17.813Z,102428.00
2023-04-18T00:30:21.159Z,102428.00
2023-04-18T00:35:26.159Z,102423.00
2023-04-18T00:40:30.508Z,102421.00
2023-04-18T00:45:33.088Z,102422.00
2023-04-18T00:50:37.521Z,102432.00
2023-04-18T00:55:41.793Z,102424.00
2023-04-18T01:00:44.586Z,102430.00
2023-04-18T01:05:48.318Z,102427.00
2023-04-18T01:10:52.411Z,102428.00
2023-04-18T01:15:55.034Z,102426.00
2023-04-18T01:20:57.713Z,102415.00
2023-04-18T01:26:01.512Z,102434.00
2023-04-18T01:31:04.140Z,102432.00
2023-04-18T01:36:07.141Z,102425.00
2023-04-18T01:41:10.910Z,102418.00
2023-04-18T01:46:13.418Z,102417.00
2023-04-18T01:51:16.032Z,102421.00
2023-04-18T01:56:22.801Z,102424.00
2023-04-18T02:01:25.740Z,102425.00
2023-04-18T02:06:31.146Z,102426.00
2023-04-18T02:11:36.864Z,102419.00
2023-04-18T02:16:39.506Z,102441.00
2023-04-18T02:21:45.067Z,102430.00
2023-04-18T02:26:48.931Z,102428.00
2023-04-18T02:31:54.127Z,102425.00
2023-04-18T02:36:59.323Z,102415.00
2023-04-18T02:42:03.301Z,102421.00
2023-04-18T02:47:08.430Z,102431.00
2023-04-18T02:52:14.862Z,102432.00
2023-04-18T02:57:18.760Z,102422.00
2023-04-18T03:02:44.714Z,102425.00
2023-04-18T03:08:00.166Z,102428.00
2023-04-18T03:13:05.121Z,102429.00
2023-04-18T03:18:08.638Z,102430.00
2023-04-18T03:23:14.700Z,102426.00
2023-04-18T03:28:18.740Z,102417.00
2023-04-18T03:33:21.320Z,102415.00
2023-04-18T03:38:28.002Z,102419.00
2023-04-18T03:43:31.910Z,102433.00
2023-04-18T03:48:34.433Z,102431.00
2023-04-18T03:53:40.628Z,102430.00
2023-04-18T03:58:44.678Z,102431.00
2023-04-18T04:03:47.787Z,102424.00
2023-04-18T04:08:50.641Z,102419.00
2023-04-18T04:13:58.880Z,102427.00
2023-04-18T04:19:07.470Z,102427.00
2023-04-18T04:24:16.798Z,102429.00
2023-04-18T04:29:23.878Z,102438.00
2023-04-18T04:34:27.334Z,102439.00
2023-04-18T04:39:32.948Z,102436.00
2023-04-18T04:44:57.014Z,102441.00
2023-04-18T04:50:00.119Z,102442.00
2023-04-18T04:55:02.761Z,102448.00
2023-04-18T05:00:09.533Z,102448.00
2023-04-18T05:05:12.290Z,102455.00
2023-04-18T05:10:14.857Z,102448.00
2023-04-18T05:15:20.678Z,102460.00
2023-04-18T05:20:23.619Z,102457.00
2023-04-18T05:25:26.166Z,102456.00
2023-04-18T05:30:30.056Z,102461.00
2023-04-18T05:35:32.676Z,102464.00
2023-04-18T05:40:35.145Z,102454.00
2023-04-18T05:45:39.201Z,102462.00
2023-04-18T05:50:42.847Z,102451.00
2023-04-18T05:55:48.707Z,102461.00
2023-04-18T06:00:53.364Z,102461.00
2023-04-18T06:05:56.130Z,102455.00
2023-04-18T06:10:58.988Z,102457.00
2023-04-18T06:16:03.612Z,102455.00
2023-04-18T06:21:06.466Z,102448.00
2023-04-18T06:26:09.301Z,102462.00
2023-04-18T06:31:13.217Z,102464.00
2023-04-18T06:36:16.105Z,102460.00
2023-04-18T06:41:19.904Z,102465.00
2023-04-18T06:46:24.116Z,102469.00
2023-04-18T06:51:30.998Z,102477.00
2023-04-18T06:56:36.532Z,102476.00
2023-04-18T07:01:41.816Z,102466.00
2023-04-18T07:06:45.543Z,102470.00
2023-04-18T07:11:48.348Z,102486.00
2023-04-18T07:16:52.644Z,102485.00
2023-04-18T07:21:55.628Z,102477.00
2023-04-18T07:26:58.215Z,102479.00
2023-04-18T07:32:03.044Z,102480.00
2023-04-18T07:37:08.375Z,102478.00
2023-04-18T07:42:12.770Z,102484.00
2023-04-18T07:47:17.186Z,102483.00
2023-04-18T07:52:20.125Z,102486.00
2023-04-18T07:57:22.705Z,102494.00
2023-04-18T08:02:29.062Z,102494.00
2023-04-18T08:07:32.405Z,102499.00
2023-04-18T08:12:34.961Z,102498.00
2023-04-18T08:17:39.387Z,102502.00
2023-04-18T08:22:57.674Z,102502.00
2023-04-18T08:28:06.058Z,102502.00
2023-04-18T08:33:10.234Z,102502.00
2023-04-18T08:38:19.754Z,102495.00
2023-04-18T08:43:22.922Z,102504.00
2023-04-18T08:48:27.656Z,102496.00
2023-04-18T08:53:34.197Z,102499.00
2023-04-18T08:58:37.782Z,102498.00
2023-04-18T09:03:43.037Z,102494.00
2023-04-18T09:08:57.986Z,102487.00
2023-04-18T09:14:01.032Z,102480.00
2023-04-18T09:19:14.612Z,102478.00
2023-04-18T09:24:22.836Z,102484.00
2023-04-18T09:29:47.499Z,102483.00
2023-04-18T09:34:56.703Z,102474.00
2023-04-18T09:39:59.677Z,102478.00
2023-04-18T09:45:07.820Z,102473.00
2023-04-18T09:50:14.900Z,102465.00
2023-04-18T09:55:19.474Z,102470.00
2023-04-18T10:00:26.364Z,102468.00
2023-04-18T10:05:39.846Z,102467.00
2023-04-18T10:10:45.023Z,102465.00
2023-04-18T10:15:47.997Z,102466.00
2023-04-18T10:21:02.220Z,102479.00
2023-04-18T10:26:06.660Z,102455.00
2023-04-18T10:31:09.348Z,102458.00
2023-04-18T10:36:18.819Z,102444.00
2023-04-18T10:41:27.346Z,102435.00
2023-04-18T10:46:32.851Z,102438.00
2023-04-18T10:51:37.046Z,102431.00
2023-04-18T10:56:39.752Z,102427.00
2023-04-18T11:01:49.144Z,102441.00
2023-04-18T11:06:55.358Z,102429.00
2023-04-18T11:12:07.077Z,102417.00
2023-04-18T11:17:21.010Z,102417.00
2023-04-18T11:22:25.201Z,102429.00
2023-04-18T11:27:48.646Z,102424.00
2023-04-18T11:32:52.472Z,102423.00
2023-04-18T11:38:01.210Z,102413.00
2023-04-18T11:43:06.566Z,102410.00
2023-04-18T11:48:10.016Z,102406.00
2023-04-18T11:53:14.662Z,102397.00
2023-04-18T11:58:17.411Z,102388.00
2023-04-18T12:03:22.264Z,102385.00
2023-04-18T12:08:27.485Z,102394.00
2023-04-18T12:13:33.022Z,102376.00
2023-04-18T12:18:38.332Z,102369.00
2023-04-18T12:23:44.810Z,102382.00
2023-04-18T12:28:51.422Z,102399.00
2023-04-18T12:33:54.066Z,102372.00
2023-04-18T12:38:59.079Z,102376.00
2023-04-18T12:44:06.229Z,102375.00
2023-04-18T12:49:09.131Z,102368.00
2023-04-18T12:54:17.235Z,102362.00
2023-04-18T12:59:20.754Z,102353.00
2023-04-18T13:04:23.871Z,102352.00
2023-04-18T13:09:30.854Z,102354.00
2023-04-18T13:14:33.390Z,102374.00
2023-04-18T13:19:35.897Z,102361.00
2023-04-18T13:24:39.866Z,102358.00
2023-04-18T13:29:46.111Z,102349.00
2023-04-18T13:34:49.170Z,102345.00
2023-04-18T13:39:53.142Z,102352.00
2023-04-18T13:45:00.812Z,102354.00
2023-04-18T13:50:03.408Z,102369.00
2023-04-18T13:55:09.170Z,102373.00
2023-04-18T14:00:13.180Z,102360.00
2023-04-18T14:05:15.771Z,102352.00
2023-04-18T14:10:19.608Z,102351.00
2023-04-18T14:15:24.476Z,102354.00
2023-04-18T14:20:27.382Z,102355.00
2023-04-18T14:25:31.359Z,102370.00
2023-04-18T14:30:34.033Z,102365.00
2023-04-18T14:35:36.687Z,102335.00
2023-04-18T14:40:40.778Z,102350.00
2023-04-18T14:45:43.295Z,102347.00
2023-04-18T14:50:45.862Z,102355.00
2023-04-18T14:55:50.046Z,102360.00
2023-04-18T15:00:52.621Z,102367.00
2023-04-18T15:05:56.005Z,102343.00
2023-04-18T15:10:59.742Z,102354.00
2023-04-18T15:16:02.259Z,102360.00
2023-04-18T15:21:04.783Z,102363.00
2023-04-18T15:26:14.743Z,102372.00
2023-04-18T15:31:17.230Z,102374.00
2023-04-18T15:36:19.683Z,102367.00
2023-04-18T15:41:23.626Z,102364.00
2023-04-18T15:46:26.133Z,102376.00
2023-04-18T15:51:28.809Z,102349.00
2023-04-18T15:56:33.614Z,102357.00
2023-04-18T16:01:36.433Z,102370.00
2023-04-18T16:06:38.860Z,102381.00
2023-04-18T16:11:42.685Z,102370.00
2023-04-18T16:16:48.195Z,102368.00
2023-04-18T16:21:50.692Z,102373.00
2023-04-18T16:26:57.675Z,102364.00
2023-04-18T16:32:00.072Z,102375.00
2023-04-18T16:37:02.609Z,102370.00
2023-04-18T16:42:06.645Z,102371.00
2023-04-18T16:47:09.111Z,102383.00
2023-04-18T16:52:14.547Z,102375.00
2023-04-18T16:57:18.544Z,102386.00
2023-04-18T17:02:21.144Z,102376.00
2023-04-18T17:07:23.649Z,102387.00
2023-04-18T17:12:27.554Z,102383.00
2023-04-18T17:17:32.823Z,102371.00
2023-04-18T17:22:35.465Z,102386.00
2023-04-18T17:27:40.060Z,102398.00
2023-04-18T17:32:42.545Z,102387.00
2023-04-18T17:37:46.352Z,102396.00
2023-04-18T17:42:53.151Z,102401.00
2023-04-18T17:47:57.710Z,102389.00
2023-04-18T17:53:00.132Z,102392.00
2023-04-18T17:58:03.918Z,102396.00
2023-04-18T18:03:06.514Z,102405.00
2023-04-18T18:08:09.053Z,102401.00
2023-04-18T18:13:13.008Z,102404.00
2023-04-18T18:18:15.422Z,102408.00
2023-04-18T18:23:17.952Z,102407.00
2023-04-18T18:28:22.048Z,102391.00
2023-04-18T18:33:24.585Z,102389.00
2023-04-18T18:38:27.143Z,102382.00
2023-04-18T18:43:30.937Z,102398.00
2023-04-18T18:48:33.340Z,102385.00
2023-04-18T18:53:36.815Z,102370.00
2023-04-18T18:58:42.158Z,102378.00
2023-04-18T19:03:44.587Z,102374.00
2023-04-18T19:08:47.165Z,102366.00
2023-04-18T19:13:52.935Z,102372.00
2023-04-18T19:18:55.357Z,102382.00
2023-04-18T19:24:00.820Z,102384.00
2023-04-18T19:29:06.344Z,102370.00
2023-04-18T19:34:08.782Z,102382.00
2023-04-18T19:39:11.166Z,102385.00
2023-04-18T19:44:15.047Z,102382.00
2023-04-18T19:49:17.624Z,102367.00
2023-04-18T19:54:21.710Z,102381.00
2023-04-18T19:59:25.820Z,102374.00
2023-04-18T20:04:31.000Z,102354.00
2023-04-18T20:09:35.078Z,102349.00
2023-04-18T20:14:41.685Z,102355.00
2023-04-18T20:19:49.823Z,102337.00
2023-04-18T20:24:52.536Z,102335.00
2023-04-18T20:29:57.337Z,102333.00
2023-04-18T20:35:00.105Z,102317.00
2023-04-18T20:40:02.611Z,102319.00
2023-04-18T20:45:08.164Z,102314.00
2023-04-18T20:50:11.249Z,102305.00
2023-04-18T20:55:15.206Z,102294.00
2023-04-18T21:00:22.939Z,102317.00
2023-04-18T21:05:25.364Z,102293.00
2023-04-18T21:10:27.747Z,102297.00
2023-04-18T21:15:31.580Z,102281.00
2023-04-18T21:20:34.017Z,102292.00
2023-04-18T21:25:40.886Z,102287.00
2023-04-18T21:30:44.777Z,102274.00
2023-04-18T21:35:47.267Z,102272.00
2023-04-18T21:40:49.811Z,102263.00
2023-04-18T21:45:53.692Z,102271.00
2023-04-18T21:50:56.364Z,102259.00
2023-04-18T21:55:58.843Z,102263.00
2023-04-18T22:01:06.072Z,102270.00
2023-04-18T22:06:11.610Z,102271.00
2023-04-18T22:11:14.159Z,102271.00
2023-04-18T22:16:18.115Z,102258.00
2023-04-18T22:21:20.675Z,102255.00
2023-04-18T22:26:23.178Z,102252.00
2023-04-18T22:31:27.119Z,102241.00
2023-04-18T22:36:29.598Z,102232.00
2023-04-18T22:41:31.982Z,102239.00
2023-04-18T22:46:39.013Z,102224.00
2023-04-18T22:51:41.479Z,102212.00
2023-04-18T22:56:43.979Z,102204.00
2023-04-18T23:01:47.839Z,102199.00
2023-04-18T23:06:53.192Z,102184.00
2023-04-18T23:11:55.616Z,102176.00
2023-04-18T23:16:59.360Z,102164.00
2023-04-18T23:22:01.782Z,102162.00
2023-04-18T23:27:04.488Z,102149.00
2023-04-18T23:32:08.362Z,102153.00
2023-04-18T23:37:10.751Z,102155.00
2023-04-18T23:42:13.140Z,102151.00
2023-04-18T23:47:17.152Z,102131.00
2023-04-18T23:52:19.693Z,102125.00
2023-04-18T23:57:22.118Z,102112.00
